Time;durP1;ratioP1;P1;durP2;ratioP2;P2;SDS_P1;SDS_P2;PMS_P1;PMS_P2;Temp;Humidity;BMP_temperature;BMP_pressure;BME280_temperature;BME280_humidity;BME280_pressure;Samples;Min_cycle;Max_cycle;Signal;HPM_P1;HPM_P2
2022/08/21 00:02:19;;;;;;;3.30;2.17;;;17.50;99.90;;;;;;5002585;28;20231;-48
2022/08/21 00:04:47;;;;;;;4.70;2.73;;;17.50;99.90;;;;;;5006808;28;20199;-50
2022/08/21 00:07:24;;;;;;;2.83;2.53;;;17.30;99.90;;;;;;5008920;28;20789;-48
2022/08/21 00:09:52;;;;;;;4.83;2.80;;;17.20;99.90;;;;;;5007255;28;20259;-49
2022/08/21 00:12:22;;;;;;;3.97;2.43;;;17.30;99.90;;;;;;5006354;28;20643;-49
2022/08/21 00:14:49;;;;;;;4.43;2.60;;;17.40;99.90;;;;;;5006188;28;20546;-50
2022/08/21 00:17:22;;;;;;;3.73;2.60;;;17.30;99.90;;;;;;5006704;28;20834;-49
2022/08/21 00:19:49;;;;;;;4.73;2.77;;;17.30;99.90;;;;;;5010844;28;20616;-50
2022/08/21 00:22:17;;;;;;;6.30;3.27;;;17.20;99.90;;;;;;5007362;28;20208;-49
2022/08/21 00:24:43;;;;;;;9.80;2.90;;;17.30;99.90;;;;;;5007716;28;20220;-50
2022/08/21 00:27:10;;;;;;;4.97;3.00;;;17.30;99.90;;;;;;5016717;28;20493;-48
2022/08/21 00:29:37;;;;;;;3.90;2.90;;;17.20;99.90;;;;;;5011480;28;20256;-50
2022/08/21 00:32:04;;;;;;;7.53;2.73;;;17.20;99.90;;;;;;5008452;28;20229;-48
2022/08/21 00:34:31;;;;;;;6.63;3.47;;;17.00;99.90;;;;;;5009521;28;20833;-50
2022/08/21 00:36:58;;;;;;;7.63;3.10;;;17.10;99.90;;;;;;5011069;28;20648;-49
2022/08/21 00:39:25;;;;;;;3.20;2.90;;;17.10;99.90;;;;;;5010110;28;20207;-50
2022/08/21 00:41:51;;;;;;;4.77;3.50;;;17.20;99.90;;;;;;5013009;28;20669;-49
2022/08/21 00:44:18;;;;;;;5.10;3.10;;;17.20;99.90;;;;;;5007498;28;20243;-50
2022/08/21 00:46:46;;;;;;;6.07;3.70;;;17.20;99.90;;;;;;5006971;28;20374;-49
2022/08/21 00:49:13;;;;;;;7.73;4.00;;;17.10;99.90;;;;;;5024838;28;20683;-50
2022/08/21 00:51:55;;;;;;;4.47;3.77;;;17.10;99.90;;;;;;5008857;28;20842;-49
2022/08/21 00:54:25;;;;;;;7.43;4.13;;;17.20;99.90;;;;;;5010041;28;21554;-48
2022/08/21 00:56:59;;;;;;;6.97;4.13;;;17.10;99.90;;;;;;5006190;28;20262;-48
2022/08/21 00:59:29;;;;;;;6.03;4.10;;;17.10;99.90;;;;;;5008336;28;20756;-48
2022/08/21 01:01:56;;;;;;;5.57;4.20;;;17.20;99.90;;;;;;5013046;28;20288;-50
2022/08/21 01:04:23;;;;;;;5.33;4.10;;;17.20;99.90;;;;;;5008609;28;20260;-50
2022/08/21 01:06:51;;;;;;;8.87;4.40;;;17.00;99.90;;;;;;5012314;28;20207;-49
2022/08/21 01:09:18;;;;;;;8.10;4.10;;;17.00;99.90;;;;;;5009918;28;20234;-49
2022/08/21 01:11:46;;;;;;;4.77;4.13;;;17.00;99.90;;;;;;5010090;28;20301;-49
2022/08/21 01:14:14;;;;;;;6.93;4.30;;;17.10;99.90;;;;;;5009755;28;20197;-50
2022/08/21 01:16:45;;;;;;;6.70;4.07;;;16.90;99.90;;;;;;5009997;28;20248;-49
2022/08/21 01:19:13;;;;;;;7.33;4.90;;;16.90;99.90;;;;;;5009079;28;20682;-50
2022/08/21 01:21:40;;;;;;;7.47;4.70;;;17.00;99.90;;;;;;5012984;28;20315;-50
2022/08/21 01:24:11;;;;;;;9.87;4.90;;;17.00;99.90;;;;;;5011389;28;20204;-49
2022/08/21 01:26:38;;;;;;;8.33;5.20;;;16.90;99.90;;;;;;5006012;28;20215;-49
2022/08/21 01:29:40;;;;;;;8.13;5.13;;;17.00;99.90;;;;;;5010573;28;21251;-50
2022/08/21 01:32:15;;;;;;;8.13;5.07;;;16.90;99.90;;;;;;5003950;28;20880;-50
2022/08/21 01:34:45;;;;;;;7.97;4.67;;;17.00;99.90;;;;;;5009750;28;20305;-50
2022/08/21 01:37:12;;;;;;;9.33;5.17;;;16.70;99.90;;;;;;5007429;28;20298;-50
2022/08/21 01:39:41;;;;;;;6.37;4.83;;;16.80;99.90;;;;;;5006841;28;20206;-49
2022/08/21 01:42:09;;;;;;;10.70;4.90;;;16.80;99.90;;;;;;5012117;28;20206;-48
2022/08/21 01:44:36;;;;;;;7.77;4.97;;;16.80;99.90;;;;;;5008250;28;20215;-48
2022/08/21 01:47:07;;;;;;;8.30;5.53;;;16.70;99.90;;;;;;5019437;28;20287;-49
2022/08/21 01:49:35;;;;;;;9.00;5.77;;;16.70;99.90;;;;;;5009013;28;20239;-48
2022/08/21 01:52:03;;;;;;;8.50;6.23;;;16.50;99.90;;;;;;5008735;28;20281;-50
2022/08/21 01:54:30;;;;;;;7.30;5.37;;;16.50;99.90;;;;;;5009598;28;20330;-47
2022/08/21 01:56:58;;;;;;;9.03;5.63;;;16.60;99.90;;;;;;5009077;28;20260;-49
2022/08/21 01:59:26;;;;;;;7.10;5.30;;;16.70;99.90;;;;;;5008595;28;20686;-49
2022/08/21 02:01:57;;;;;;;10.37;6.43;;;16.80;99.90;;;;;;5009666;28;20292;-48
2022/08/21 02:04:24;;;;;;;7.30;5.50;;;16.80;99.90;;;;;;5006883;28;20210;-49
2022/08/21 02:06:51;;;;;;;6.70;5.73;;;16.80;99.90;;;;;;5005392;28;20264;-50
2022/08/21 02:09:19;;;;;;;7.10;5.83;;;16.90;99.90;;;;;;5009500;28;20760;-49
2022/08/21 02:11:46;;;;;;;6.50;5.47;;;16.90;99.90;;;;;;5008432;28;20221;-48
2022/08/21 02:14:14;;;;;;;10.90;5.47;;;16.80;99.90;;;;;;5007536;28;20618;-49
2022/08/21 02:16:58;;;;;;;8.17;5.57;;;16.80;99.90;;;;;;5009356;28;20207;-50
2022/08/21 02:19:34;;;;;;;7.67;5.93;;;16.70;99.90;;;;;;5011603;28;20293;-49
2022/08/21 02:22:08;;;;;;;8.70;6.27;;;16.60;99.90;;;;;;5012042;28;20208;-50
2022/08/21 02:24:37;;;;;;;8.20;6.23;;;16.50;99.90;;;;;;5008922;28;20203;-50
2022/08/21 02:27:24;;;;;;;7.07;5.60;;;16.50;99.90;;;;;;5006187;28;20216;-49
2022/08/21 02:29:56;;;;;;;10.13;6.10;;;16.60;99.90;;;;;;5008028;28;20709;-48
2022/08/21 02:32:23;;;;;;;8.83;5.67;;;16.60;99.90;;;;;;5009512;28;20573;-49
2022/08/21 02:34:50;;;;;;;9.83;6.73;;;16.50;99.90;;;;;;5007544;28;20290;-50
2022/08/21 02:37:16;;;;;;;6.73;5.70;;;16.50;99.90;;;;;;5008645;28;20229;-49
2022/08/21 02:39:43;;;;;;;8.53;5.30;;;16.40;99.90;;;;;;5012149;28;20735;-48
2022/08/21 02:42:10;;;;;;;6.90;6.20;;;16.40;99.90;;;;;;5008131;28;20215;-48
2022/08/21 02:44:37;;;;;;;11.50;6.30;;;16.40;99.90;;;;;;5007151;28;20229;-50
2022/08/21 02:47:04;;;;;;;7.17;6.07;;;16.30;99.90;;;;;;5006823;28;20206;-49
2022/08/21 02:49:31;;;;;;;9.57;6.70;;;16.20;99.90;;;;;;5007390;28;20768;-48
2022/08/21 02:51:57;;;;;;;9.73;6.43;;;16.40;99.90;;;;;;5008491;28;20197;-50
2022/08/21 02:54:24;;;;;;;10.33;6.17;;;16.30;99.90;;;;;;5011164;28;20322;-48
2022/08/21 02:56:51;;;;;;;7.53;5.90;;;16.30;99.90;;;;;;5008839;28;20205;-49
2022/08/21 02:59:18;;;;;;;10.13;6.43;;;16.30;99.90;;;;;;5009636;28;20644;-50
2022/08/21 03:01:45;;;;;;;9.00;5.90;;;16.20;99.90;;;;;;5010825;28;20371;-48
2022/08/21 03:04:12;;;;;;;8.10;7.27;;;16.20;99.90;;;;;;5009339;28;20241;-49
2022/08/21 03:06:39;;;;;;;9.87;6.40;;;16.30;99.90;;;;;;5006458;28;20212;-49
2022/08/21 03:09:06;;;;;;;8.80;6.17;;;16.20;99.90;;;;;;5011830;28;20794;-49
2022/08/21 03:11:32;;;;;;;8.13;6.60;;;16.10;99.90;;;;;;5007610;28;20741;-50
2022/08/21 03:13:59;;;;;;;8.97;7.00;;;16.20;99.90;;;;;;5004844;28;20204;-48
2022/08/21 03:16:26;;;;;;;9.57;6.33;;;16.10;99.90;;;;;;5004766;28;20272;-50
2022/08/21 03:18:59;;;;;;;8.50;6.83;;;16.10;99.90;;;;;;5009865;28;20206;-49
2022/08/21 03:21:26;;;;;;;8.43;6.50;;;16.20;99.90;;;;;;5005281;28;20306;-48
2022/08/21 03:23:53;;;;;;;7.87;6.50;;;16.20;99.90;;;;;;5007351;28;20779;-49
2022/08/21 03:26:21;;;;;;;8.63;6.37;;;16.20;99.90;;;;;;5008243;28;20579;-49
2022/08/21 03:28:50;;;;;;;10.67;6.67;;;16.10;99.90;;;;;;5011302;28;20579;-51
2022/08/21 03:31:17;;;;;;;10.27;6.83;;;16.00;99.90;;;;;;5007341;28;20259;-50
2022/08/21 03:33:44;;;;;;;8.07;6.63;;;16.00;99.90;;;;;;5005975;28;20231;-48
2022/08/21 03:36:11;;;;;;;8.60;6.43;;;16.10;99.90;;;;;;5006210;28;20650;-48
2022/08/21 03:38:38;;;;;;;8.03;6.63;;;16.00;99.90;;;;;;5008568;28;20627;-48
2022/08/21 03:41:06;;;;;;;8.73;6.67;;;16.00;99.90;;;;;;5005138;28;21704;-50
2022/08/21 03:43:35;;;;;;;9.63;6.73;;;16.00;99.90;;;;;;5010004;28;20561;-48
2022/08/21 03:46:03;;;;;;;10.10;6.33;;;16.00;99.90;;;;;;5005917;28;20675;-50
2022/08/21 03:48:30;;;;;;;8.20;6.13;;;16.00;99.90;;;;;;5009908;28;20830;-50
2022/08/21 03:50:57;;;;;;;7.37;6.03;;;16.00;99.90;;;;;;5009352;28;20256;-49
2022/08/21 03:53:24;;;;;;;8.30;6.33;;;15.90;99.90;;;;;;5007460;28;20261;-48
2022/08/21 03:55:52;;;;;;;8.37;7.37;;;16.00;99.90;;;;;;5006712;28;20657;-49
2022/08/21 03:58:21;;;;;;;10.00;6.80;;;15.90;99.90;;;;;;5011864;28;20257;-48
2022/08/21 04:00:51;;;;;;;8.20;6.87;;;15.90;99.90;;;;;;5005782;28;20201;-50
2022/08/21 04:03:19;;;;;;;7.50;6.70;;;15.80;99.90;;;;;;5007215;28;20255;-49
2022/08/21 04:05:46;;;;;;;9.10;6.53;;;15.90;99.90;;;;;;5001842;28;20213;-48
2022/08/21 04:08:14;;;;;;;13.10;7.00;;;15.70;99.90;;;;;;5005921;28;20658;-50
2022/08/21 04:10:43;;;;;;;8.53;6.47;;;15.60;99.90;;;;;;5006185;28;20217;-50
2022/08/21 04:13:10;;;;;;;10.97;6.57;;;15.50;99.90;;;;;;5011523;28;20208;-48
2022/08/21 04:15:37;;;;;;;8.43;7.13;;;15.70;99.90;;;;;;5009862;28;20297;-49
2022/08/21 04:18:05;;;;;;;9.73;8.03;;;15.60;99.90;;;;;;5039959;28;20262;-49
2022/08/21 04:20:32;;;;;;;7.27;6.57;;;15.60;99.90;;;;;;5009780;28;20212;-50
2022/08/21 04:22:59;;;;;;;7.13;6.43;;;15.60;99.90;;;;;;5014153;28;20576;-49
2022/08/21 04:25:27;;;;;;;9.00;6.97;;;15.60;99.90;;;;;;5007200;28;20232;-49
2022/08/21 04:27:54;;;;;;;8.30;7.10;;;15.60;99.90;;;;;;5007633;28;20757;-50
2022/08/21 04:30:21;;;;;;;10.37;7.23;;;15.50;99.90;;;;;;5011042;28;20356;-48
2022/08/21 04:32:55;;;;;;;11.10;7.07;;;15.30;99.90;;;;;;5011906;28;20216;-48
2022/08/21 04:35:25;;;;;;;9.63;6.30;;;15.30;99.90;;;;;;5005465;28;20195;-49
2022/08/21 04:37:52;;;;;;;7.10;6.40;;;15.30;99.90;;;;;;5004445;28;20204;-49
2022/08/21 04:40:21;;;;;;;11.90;7.17;;;15.40;99.90;;;;;;5009863;28;20204;-49
2022/08/21 04:43:02;;;;;;;11.50;6.80;;;15.40;99.90;;;;;;5009450;28;20208;-48
2022/08/21 04:45:30;;;;;;;7.27;6.43;;;15.40;99.90;;;;;;5008426;28;20767;-50
2022/08/21 04:48:00;;;;;;;9.23;7.03;;;15.40;99.90;;;;;;5009062;28;20301;-50
2022/08/21 04:50:36;;;;;;;11.97;7.00;;;15.30;99.90;;;;;;5008208;28;20360;-51
2022/08/21 04:53:10;;;;;;;9.97;7.23;;;15.40;99.90;;;;;;4997767;28;20351;-50
2022/08/21 04:55:37;;;;;;;9.17;6.77;;;15.40;99.90;;;;;;5001890;28;20641;-50
2022/08/21 04:58:11;;;;;;;12.40;6.83;;;15.30;99.90;;;;;;5012621;28;22443;-50
2022/08/21 05:00:38;;;;;;;10.80;6.67;;;15.30;99.90;;;;;;5010570;28;20618;-48
2022/08/21 05:03:07;;;;;;;10.93;6.87;;;15.20;99.90;;;;;;5008507;28;20336;-49
2022/08/21 05:05:34;;;;;;;10.50;6.60;;;15.20;99.90;;;;;;5006723;28;20209;-48
2022/08/21 05:08:03;;;;;;;9.13;6.23;;;15.30;99.90;;;;;;5038066;28;20212;-49
2022/08/21 05:10:31;;;;;;;8.23;6.23;;;15.40;99.90;;;;;;5006102;28;20220;-47
2022/08/21 05:13:00;;;;;;;11.83;6.43;;;15.40;99.90;;;;;;5005850;28;20211;-49
2022/08/21 05:15:27;;;;;;;8.80;6.97;;;15.30;99.90;;;;;;5006876;28;20204;-49
2022/08/21 05:17:54;;;;;;;9.73;6.37;;;15.40;99.90;;;;;;5013022;28;20200;-49
2022/08/21 05:20:27;;;;;;;8.37;5.47;;;15.40;99.90;;;;;;5011116;28;20211;-49
2022/08/21 05:22:54;;;;;;;10.13;6.23;;;15.50;99.90;;;;;;5010056;28;20211;-49
2022/08/21 05:25:21;;;;;;;8.97;5.67;;;15.40;99.90;;;;;;5007304;28;20209;-50
2022/08/21 05:27:50;;;;;;;8.73;6.63;;;15.30;99.90;;;;;;5016441;28;20225;-48
2022/08/21 05:30:19;;;;;;;8.13;5.63;;;15.40;99.90;;;;;;5014931;28;20741;-50
2022/08/21 05:32:47;;;;;;;10.10;6.10;;;15.50;99.90;;;;;;5009437;28;20197;-50
2022/08/21 05:35:14;;;;;;;9.77;6.37;;;15.40;99.90;;;;;;5008321;28;20235;-50
2022/08/21 05:37:41;;;;;;;8.90;5.70;;;15.60;99.90;;;;;;5008984;28;20262;-49
2022/08/21 05:40:09;;;;;;;9.63;5.93;;;15.60;99.90;;;;;;5010452;28;20225;-49
2022/08/21 05:42:53;;;;;;;6.63;5.70;;;15.50;99.90;;;;;;5008421;28;20210;-50
2022/08/21 05:45:30;;;;;;;9.43;5.43;;;15.40;99.90;;;;;;5005844;28;20526;-49
2022/08/21 05:48:21;;;;;;;8.40;5.93;;;15.40;99.90;;;;;;5008369;28;20222;-49
2022/08/21 05:50:49;;;;;;;9.57;5.80;;;15.50;99.90;;;;;;5009311;28;20640;-49
2022/08/21 05:53:18;;;;;;;13.60;5.80;;;15.70;99.90;;;;;;5010019;28;20549;-51
2022/08/21 05:55:46;;;;;;;6.43;5.33;;;15.60;99.90;;;;;;5003956;28;20244;-48
2022/08/21 05:58:15;;;;;;;6.10;5.03;;;15.80;99.90;;;;;;5014756;28;20204;-49
2022/08/21 06:00:43;;;;;;;9.53;5.93;;;15.80;99.90;;;;;;5004816;28;20199;-51
2022/08/21 06:03:22;;;;;;;10.27;5.67;;;15.60;99.90;;;;;;5009310;28;20232;-50
2022/08/21 06:05:49;;;;;;;11.60;5.57;;;15.70;99.90;;;;;;5011487;28;20732;-50
2022/08/21 06:08:17;;;;;;;7.87;5.13;;;15.80;99.90;;;;;;5009749;28;20264;-50
2022/08/21 06:10:46;;;;;;;6.77;5.93;;;15.60;99.90;;;;;;5011224;28;20220;-50
2022/08/21 06:13:15;;;;;;;7.90;5.60;;;15.70;99.90;;;;;;5009449;28;20262;-49
2022/08/21 06:15:42;;;;;;;9.27;5.17;;;15.70;99.90;;;;;;5004574;28;20298;-50
2022/08/21 06:18:09;;;;;;;8.87;5.30;;;15.70;99.90;;;;;;5005387;28;20249;-50
2022/08/21 06:20:37;;;;;;;11.67;5.33;;;15.80;99.90;;;;;;5008384;28;20724;-50
2022/08/21 06:23:04;;;;;;;11.80;5.73;;;15.90;99.90;;;;;;5010913;28;20209;-50
2022/08/21 06:25:31;;;;;;;6.70;4.73;;;15.90;99.90;;;;;;5006529;28;20698;-49
2022/08/21 06:28:06;;;;;;;10.53;5.07;;;16.00;99.90;;;;;;5009240;28;20332;-49
2022/08/21 06:30:35;;;;;;;9.83;5.53;;;16.10;99.90;;;;;;5011453;28;20215;-51
2022/08/21 06:33:03;;;;;;;7.20;4.47;;;16.30;99.90;;;;;;5012567;28;20275;-50
2022/08/21 06:35:30;;;;;;;12.17;4.90;;;16.40;99.90;;;;;;5012268;28;20295;-50
2022/08/21 06:37:57;;;;;;;11.53;4.93;;;16.40;99.90;;;;;;4656919;28;10000286;-49
2022/08/21 06:40:26;;;;;;;7.43;4.50;;;16.50;99.90;;;;;;5000108;28;20212;-48
2022/08/21 06:42:57;;;;;;;8.90;4.50;;;16.50;99.90;;;;;;5006920;28;20756;-48
2022/08/21 06:45:24;;;;;;;10.13;4.73;;;16.60;99.90;;;;;;5004596;28;20232;-48
2022/08/21 06:47:54;;;;;;;8.27;4.40;;;16.70;99.90;;;;;;5005576;28;20657;-50
2022/08/21 06:50:20;;;;;;;9.13;4.60;;;16.80;99.90;;;;;;5008318;28;20692;-50
2022/08/21 06:52:47;;;;;;;7.13;4.00;;;16.90;99.90;;;;;;5006596;28;20198;-49
2022/08/21 06:55:14;;;;;;;7.20;4.27;;;17.30;99.90;;;;;;5008267;28;20232;-51
2022/08/21 06:57:48;;;;;;;9.33;5.17;;;17.40;99.90;;;;;;5012746;28;20698;-53
2022/08/21 07:00:19;;;;;;;12.43;5.47;;;17.50;99.90;;;;;;5007291;28;20220;-53
2022/08/21 07:02:45;;;;;;;8.73;3.83;;;17.60;99.90;;;;;;5013857;28;20244;-53
2022/08/21 07:05:12;;;;;;;9.00;4.47;;;17.90;99.90;;;;;;5005342;28;20813;-53
2022/08/21 07:07:45;;;;;;;12.30;4.20;;;17.90;99.90;;;;;;5009886;28;20284;-52
2022/08/21 07:10:12;;;;;;;9.10;4.13;;;17.80;99.90;;;;;;5006001;28;20224;-52
2022/08/21 07:12:47;;;;;;;8.07;4.00;;;18.00;99.90;;;;;;5001006;28;20228;-53
2022/08/21 07:15:16;;;;;;;14.13;4.27;;;18.10;99.90;;;;;;5004653;28;20201;-62
2022/08/21 07:17:43;;;;;;;9.37;4.47;;;18.30;99.90;;;;;;5008182;28;20204;-61
2022/08/21 07:20:10;;;;;;;7.00;4.07;;;18.40;99.90;;;;;;5005738;28;20228;-61
2022/08/21 07:22:40;;;;;;;9.57;4.27;;;18.30;99.90;;;;;;5006315;28;20577;-62
2022/08/21 07:25:08;;;;;;;7.97;4.07;;;18.50;99.90;;;;;;5014352;28;20313;-53
2022/08/21 07:27:35;;;;;;;10.13;4.67;;;18.60;99.90;;;;;;5005294;28;20271;-54
2022/08/21 07:30:04;;;;;;;7.37;3.90;;;18.60;99.90;;;;;;5006254;28;20196;-63
2022/08/21 07:32:31;;;;;;;10.37;3.60;;;18.80;99.90;;;;;;5004577;28;20243;-61
2022/08/21 07:34:58;;;;;;;11.43;4.17;;;18.90;99.90;;;;;;5003269;28;20197;-53
2022/08/21 07:37:25;;;;;;;8.20;3.57;;;19.00;99.90;;;;;;4994465;28;20201;-53
2022/08/21 07:39:52;;;;;;;8.13;3.33;;;19.20;99.90;;;;;;5006893;28;20910;-53
2022/08/21 07:42:19;;;;;;;12.13;4.47;;;19.20;99.90;;;;;;5005080;28;20351;-63
2022/08/21 07:44:46;;;;;;;7.07;4.23;;;19.30;99.90;;;;;;5006284;28;20625;-65
2022/08/21 07:47:15;;;;;;;8.17;3.50;;;19.20;99.90;;;;;;5008877;28;20206;-63
2022/08/21 07:50:02;;;;;;;7.53;3.50;;;19.20;99.90;;;;;;5007035;28;20244;-54
2022/08/21 07:52:32;;;;;;;7.43;3.83;;;19.40;99.90;;;;;;5010479;28;20212;-53
2022/08/21 07:54:59;;;;;;;7.97;3.70;;;19.60;99.90;;;;;;5010656;28;20238;-54
2022/08/21 07:57:32;;;;;;;13.03;4.93;;;19.60;99.90;;;;;;5007965;28;20715;-52
2022/08/21 07:59:59;;;;;;;8.17;3.70;;;19.80;99.90;;;;;;5007240;28;21088;-53
2022/08/21 08:02:28;;;;;;;10.30;4.03;;;19.90;99.90;;;;;;5010164;28;20252;-52
2022/08/21 08:05:00;;;;;;;9.80;3.77;;;19.70;99.90;;;;;;5012192;28;20208;-52
2022/08/21 08:07:27;;;;;;;12.27;3.20;;;19.60;99.90;;;;;;5011566;28;20220;-51
2022/08/21 08:09:54;;;;;;;6.37;3.10;;;19.70;99.90;;;;;;5012270;28;20282;-53
2022/08/21 08:12:21;;;;;;;10.87;3.10;;;19.90;99.90;;;;;;5006138;28;20775;-52
2022/08/21 08:14:48;;;;;;;13.37;3.40;;;20.20;99.90;;;;;;5008787;28;20206;-52
2022/08/21 08:17:15;;;;;;;5.87;2.87;;;20.30;99.90;;;;;;5017354;28;20208;-52
2022/08/21 08:19:42;;;;;;;8.10;2.90;;;20.40;99.90;;;;;;5009997;28;20595;-52
2022/08/21 08:22:14;;;;;;;10.40;2.90;;;20.30;99.90;;;;;;5024479;28;20228;-52
2022/08/21 08:24:41;;;;;;;6.90;2.63;;;20.50;99.90;;;;;;5016848;28;20217;-52
2022/08/21 08:27:08;;;;;;;6.37;2.50;;;20.70;99.90;;;;;;5016833;28;20584;-51
2022/08/21 08:29:35;;;;;;;9.60;3.03;;;20.90;99.90;;;;;;5016050;28;20205;-52
2022/08/21 08:32:03;;;;;;;7.30;2.63;;;20.90;99.90;;;;;;5015556;28;20221;-53
2022/08/21 08:34:30;;;;;;;8.67;2.53;;;21.00;99.90;;;;;;5016710;28;20780;-54
2022/08/21 08:37:00;;;;;;;8.10;2.70;;;20.90;99.90;;;;;;5017001;28;20293;-54
2022/08/21 08:39:27;;;;;;;7.37;3.20;;;20.90;99.90;;;;;;5017353;28;20307;-53
2022/08/21 08:42:09;;;;;;;11.23;3.17;;;20.90;99.90;;;;;;5019015;28;20567;-52
2022/08/21 08:45:10;;;;;;;7.57;2.43;;;21.10;99.90;;;;;;5020832;28;20579;-52
2022/08/21 08:47:44;;;;;;;10.97;2.80;;;21.30;99.90;;;;;;5019334;28;20224;-52
2022/08/21 08:50:13;;;;;;;8.80;2.97;;;21.70;99.90;;;;;;5016466;28;20213;-52
2022/08/21 08:52:45;;;;;;;9.30;2.80;;;21.90;99.90;;;;;;5018565;28;20843;-53
2022/08/21 08:55:20;;;;;;;8.50;2.40;;;21.70;99.90;;;;;;5017068;28;20320;-53
2022/08/21 08:57:54;;;;;;;10.33;3.40;;;21.70;99.90;;;;;;5020366;28;20201;-52
2022/08/21 09:00:23;;;;;;;6.80;2.80;;;21.90;99.90;;;;;;5021254;28;20692;-53
2022/08/21 09:02:55;;;;;;;8.77;3.05;;;21.60;99.90;;;;;;5019530;28;20457;-56
2022/08/21 09:05:28;;;;;;;7.27;3.20;;;22.30;99.90;;;;;;5019840;28;20205;-56
2022/08/21 09:08:26;;;;;;;8.83;2.60;;;22.70;99.90;;;;;;5020983;28;20205;-55
2022/08/21 09:11:12;;;;;;;11.93;2.50;;;23.30;99.90;;;;;;5021008;28;20267;-55
2022/08/21 09:14:02;;;;;;;4.67;2.40;;;23.00;99.90;;;;;;5021605;28;20262;-55
2022/08/21 09:16:32;;;;;;;7.80;2.00;;;23.10;99.90;;;;;;5013581;28;20668;-55
2022/08/21 09:19:06;;;;;;;7.37;2.07;;;23.40;99.90;;;;;;5008194;28;20731;-55
2022/08/21 09:21:43;;;;;;;6.03;1.90;;;23.30;99.90;;;;;;5008041;28;20201;-56
2022/08/21 09:24:36;;;;;;;7.37;2.27;;;23.20;99.90;;;;;;5008800;28;20236;-56
2022/08/21 09:27:11;;;;;;;4.13;1.93;;;23.50;99.90;;;;;;5009288;28;20232;-54
2022/08/21 09:29:42;;;;;;;4.00;2.00;;;23.40;99.90;;;;;;5008149;28;20779;-55
2022/08/21 09:32:18;;;;;;;5.87;2.33;;;22.90;99.90;;;;;;5010099;28;20215;-55
2022/08/21 09:35:21;;;;;;;8.27;1.97;;;22.90;99.90;;;;;;5015565;28;20232;-55
2022/08/21 09:38:09;;;;;;;6.53;2.00;;;23.10;99.90;;;;;;5009484;28;20625;-55
2022/08/21 09:40:38;;;;;;;7.13;2.47;;;23.60;99.90;;;;;;5025679;28;20644;-55
2022/08/21 09:43:18;;;;;;;7.63;2.20;;;23.90;99.90;;;;;;5017627;28;20200;-55
2022/08/21 09:45:47;;;;;;;6.00;2.03;;;24.10;99.90;;;;;;5012347;28;20208;-56
2022/08/21 09:48:22;;;;;;;5.13;2.10;;;23.60;99.90;;;;;;5011045;28;20676;-55
2022/08/21 09:50:53;;;;;;;8.17;1.90;;;23.30;99.90;;;;;;5018151;28;20238;-56
2022/08/21 09:53:25;;;;;;;6.30;1.80;;;23.70;99.90;;;;;;5012111;28;20201;-56
2022/08/21 09:58:46;;;;;;;4.37;2.07;;;24.20;99.90;;;;;;5014612;28;20204;-55
2022/08/21 10:01:25;;;;;;;7.30;2.60;;;24.40;99.90;;;;;;5008053;28;20227;-55
2022/08/21 10:04:08;;;;;;;5.67;2.07;;;24.00;99.90;;;;;;5013739;28;20243;-55
2022/08/21 10:06:35;;;;;;;5.17;2.17;;;23.30;99.90;;;;;;5011126;28;20205;-55
2022/08/21 10:09:17;;;;;;;6.33;2.30;;;23.70;99.90;;;;;;5007288;28;20208;-55
2022/08/21 10:12:04;;;;;;;6.13;1.80;;;23.40;99.90;;;;;;5006803;28;20701;-56
2022/08/21 10:14:52;;;;;;;8.50;2.17;;;22.90;99.90;;;;;;5017064;28;21590;-55
2022/08/21 10:17:44;;;;;;;3.33;1.30;;;22.80;99.90;;;;;;5007738;28;20212;-55
2022/08/21 10:20:25;;;;;;;5.93;1.43;;;22.80;99.90;;;;;;5008323;28;20237;-55
2022/08/21 10:23:13;;;;;;;6.77;1.77;;;22.90;99.90;;;;;;5009598;28;20240;-55
2022/08/21 10:25:51;;;;;;;6.20;1.53;;;22.90;99.90;;;;;;5008634;28;20730;-54
2022/08/21 10:29:02;;;;;;;3.83;1.43;;;23.10;99.90;;;;;;5008782;28;20207;-55
2022/08/21 10:31:53;;;;;;;4.57;1.60;;;23.20;99.90;;;;;;5000073;28;21920;-55
2022/08/21 10:34:46;;;;;;;5.47;2.40;;;23.10;99.90;;;;;;5005200;28;20201;-55
2022/08/21 10:37:18;;;;;;;3.83;1.90;;;22.90;99.90;;;;;;5007249;28;20217;-54
2022/08/21 10:40:15;;;;;;;3.07;1.50;;;23.10;99.90;;;;;;5005680;28;20240;-54
2022/08/21 10:43:04;;;;;;;4.57;2.10;;;23.10;99.90;;;;;;5007508;28;20338;-54
2022/08/21 10:46:01;;;;;;;5.80;2.67;;;23.30;99.90;;;;;;5010105;28;22652;-57
2022/08/21 10:49:03;;;;;;;5.03;1.17;;;23.50;99.90;;;;;;5009926;28;20207;-56
2022/08/21 10:51:49;;;;;;;5.77;1.40;;;23.50;99.90;;;;;;5006021;28;20949;-56
2022/08/21 10:54:29;;;;;;;2.93;1.13;;;23.40;99.90;;;;;;5008163;28;20717;-55
2022/08/21 10:57:03;;;;;;;4.87;1.10;;;23.50;99.90;;;;;;5003294;28;20649;-55
2022/08/21 10:59:57;;;;;;;3.60;1.20;;;23.70;99.90;;;;;;5005869;28;20204;-55
2022/08/21 11:02:32;;;;;;;3.23;0.97;;;24.00;99.90;;;;;;5007488;28;20662;-56
2022/08/21 11:05:06;;;;;;;1.87;1.10;;;23.60;99.90;;;;;;5012226;28;20205;-55
2022/08/21 11:07:45;;;;;;;4.57;1.20;;;23.30;99.90;;;;;;5009876;28;20229;-55
2022/08/21 11:10:27;;;;;;;3.93;1.30;;;23.00;99.90;;;;;;5004703;28;20209;-55
2022/08/21 11:13:08;;;;;;;2.97;1.20;;;23.00;99.90;;;;;;5004977;28;20247;-55
2022/08/21 11:15:54;;;;;;;2.90;1.17;;;23.20;99.90;;;;;;5004067;28;20701;-54
2022/08/21 11:18:34;;;;;;;4.77;1.50;;;23.30;99.90;;;;;;5000934;28;21478;-55
2022/08/21 11:21:42;;;;;;;3.43;1.47;;;23.20;99.90;;;;;;5003946;28;20294;-55
2022/08/21 11:24:22;;;;;;;3.73;1.27;;;23.50;99.90;;;;;;5001928;28;20196;-55
2022/08/21 11:27:14;;;;;;;4.80;1.30;;;23.80;99.90;;;;;;5007975;28;20358;-55
2022/08/21 11:29:47;;;;;;;8.57;1.50;;;23.80;99.90;;;;;;4998052;28;20240;-55
2022/08/21 11:32:39;;;;;;;2.57;0.90;;;24.30;99.90;;;;;;5000764;28;20222;-54
2022/08/21 11:35:37;;;;;;;3.90;1.30;;;24.20;99.90;;;;;;5002233;28;20208;-55
2022/08/21 11:38:27;;;;;;;4.47;1.00;;;24.50;99.90;;;;;;4997726;28;20300;-55
2022/08/21 11:41:02;;;;;;;3.17;1.17;;;24.90;99.90;;;;;;5002879;28;20644;-54
2022/08/21 11:43:50;;;;;;;3.20;1.03;;;27.60;99.90;;;;;;5007117;28;20313;-56
2022/08/21 11:46:30;;;;;;;5.73;1.07;;;27.30;99.90;;;;;;5004042;28;20303;-55
2022/08/21 11:49:15;;;;;;;3.73;0.97;;;26.90;99.90;;;;;;5008730;28;20669;-55
2022/08/21 11:51:52;;;;;;;3.07;1.10;;;26.40;99.90;;;;;;5007642;28;20230;-55
2022/08/21 11:54:43;;;;;;;3.27;1.30;;;27.40;99.90;;;;;;5006827;28;20314;-55
2022/08/21 11:57:38;;;;;;;2.50;1.13;;;26.70;99.90;;;;;;5008295;28;20207;-55
2022/08/21 12:00:18;;;;;;;4.97;1.13;;;26.00;99.90;;;;;;5006717;28;20211;-54
2022/08/21 12:02:51;;;;;;;2.43;0.90;;;25.30;99.90;;;;;;5007747;28;20266;-55
2022/08/21 12:05:39;;;;;;;4.23;1.50;;;25.90;99.90;;;;;;5001245;28;20210;-55
2022/08/21 12:08:26;;;;;;;4.27;1.20;;;25.10;99.90;;;;;;5000888;28;20291;-55
2022/08/21 12:11:06;;;;;;;5.83;1.50;;;24.70;99.90;;;;;;5004589;28;20234;-55
2022/08/21 12:13:53;;;;;;;2.13;1.10;;;25.30;99.90;;;;;;5012519;28;20285;-55
2022/08/21 12:16:32;;;;;;;5.50;1.50;;;26.40;99.90;;;;;;5007404;28;20291;-55
2022/08/21 12:19:03;;;;;;;3.90;1.30;;;28.30;99.90;;;;;;5004621;28;20284;-54
2022/08/21 12:21:30;;;;;;;2.50;1.33;;;28.30;99.90;;;;;;5003965;28;20295;-55
2022/08/21 12:24:12;;;;;;;3.83;1.03;;;27.80;99.90;;;;;;5004770;28;20331;-55
2022/08/21 12:26:51;;;;;;;5.07;1.60;;;26.30;99.90;;;;;;5004480;28;20200;-55
2022/08/21 12:29:32;;;;;;;4.55;1.40;;;25.30;99.90;;;;;;5007014;28;20247;-55
2022/08/21 12:32:14;;;;;;;4.82;1.40;;;25.70;99.90;;;;;;5004371;28;20249;-55
2022/08/21 12:35:07;;;;;;;4.07;1.20;;;26.10;99.90;;;;;;5007886;28;20201;-55
2022/08/21 12:37:45;;;;;;;3.30;1.00;;;25.20;99.90;;;;;;5005209;28;20795;-55
2022/08/21 12:40:38;;;;;;;4.57;1.35;;;25.40;99.90;;;;;;5007190;28;20618;-55
2022/08/21 12:43:12;;;;;;;3.87;1.20;;;25.60;99.90;;;;;;5007427;28;20608;-55
2022/08/21 12:45:45;;;;;;;4.50;1.43;;;26.10;99.90;;;;;;5005950;28;20299;-54
2022/08/21 12:48:37;;;;;;;3.50;1.10;;;25.70;99.90;;;;;;5005804;28;20875;-55
2022/08/21 12:51:18;;;;;;;2.40;1.30;;;25.40;99.90;;;;;;5004891;28;20675;-55
2022/08/21 12:53:56;;;;;;;2.77;1.20;;;25.40;99.90;;;;;;5012987;28;20292;-54
2022/08/21 12:56:29;;;;;;;3.55;1.10;;;25.20;99.90;;;;;;5006771;28;20291;-55
2022/08/21 12:59:03;;;;;;;5.33;1.30;;;25.20;99.90;;;;;;5004733;28;20585;-54
2022/08/21 13:01:38;;;;;;;5.87;1.13;;;26.60;99.90;;;;;;5008359;28;20726;-55
2022/08/21 13:04:12;;;;;;;3.60;1.40;;;27.20;99.90;;;;;;5014946;28;20290;-55
2022/08/21 13:06:45;;;;;;;3.65;0.90;;;26.00;99.90;;;;;;5008619;28;20280;-55
2022/08/21 13:09:15;;;;;;;3.72;1.20;;;25.40;99.90;;;;;;5006659;28;20205;-55
2022/08/21 13:11:46;;;;;;;5.80;1.58;;;25.90;99.90;;;;;;5005884;28;20304;-54
2022/08/21 13:14:28;;;;;;;4.10;1.70;;;25.30;99.90;;;;;;5008658;28;20201;-54
2022/08/21 13:16:58;;;;;;;5.27;1.90;;;25.20;99.90;;;;;;5009559;28;20703;-55
2022/08/21 13:19:26;;;;;;;5.90;1.27;;;24.80;99.90;;;;;;5011393;28;20229;-55